sensor_id;sensor_type;location;lat;lon;timestamp;temperature;humidity
18266;DHT22;9259;48.194;16.322;2023-06-14T01:51:29;14.90;99.90
18266;DHT22;9259;48.194;16.322;2023-06-14T01:53:57;14.20;99.90
18266;DHT22;9259;48.194;16.322;2023-06-14T01:56:25;14.00;99.90
18266;DHT22;9259;48.194;16.322;2023-06-14T01:58:54;14.00;99.90
18266;DHT22;9259;48.194;16.322;2023-06-14T02:01:22;14.20;99.90
18266;DHT22;9259;48.194;16.322;2023-06-14T02:03:49;14.30;99.90
18266;DHT22;9259;48.194;16.322;2023-06-14T02:06:17;14.30;99.90
18266;DHT22;9259;48.194;16.322;2023-06-14T02:08:45;14.20;99.90
18266;DHT22;9259;48.194;16.322;2023-06-14T02:11:12;14.10;99.90
18266;DHT22;9259;48.194;16.322;2023-06-14T05:31:37;17.40;99.90
18266;DHT22;9259;48.194;16.322;2023-06-14T05:34:04;17.40;99.90
18266;DHT22;9259;48.194;16.322;2023-06-14T05:36:32;17.50;99.90
18266;DHT22;9259;48.194;16.322;2023-06-14T05:38:59;17.60;99.90
18266;DHT22;9259;48.194;16.322;2023-06-14T05:41:29;17.60;99.90
18266;DHT22;9259;48.194;16.322;2023-06-14T05:43:58;17.70;99.90
18266;DHT22;9259;48.194;16.322;2023-06-14T05:46:26;17.70;99.90
18266;DHT22;9259;48.194;16.322;2023-06-14T05:48:54;17.60;99.90
18266;DHT22;9259;48.194;16.322;2023-06-14T07:05:27;17.80;99.90
18266;DHT22;9259;48.194;16.322;2023-06-14T07:07:55;19.60;99.90
18266;DHT22;9259;48.194;16.322;2023-06-14T07:10:23;19.60;99.90
18266;DHT22;9259;48.194;16.322;2023-06-14T07:12:51;19.40;99.90
18266;DHT22;9259;48.194;16.322;2023-06-14T07:15:19;19.30;99.90
18266;DHT22;9259;48.194;16.322;2023-06-14T07:17:46;19.40;99.90
18266;DHT22;9259;48.194;16.322;2023-06-14T07:20:13;19.30;99.90
18266;DHT22;9259;48.194;16.322;2023-06-14T07:22:42;19.60;99.90
18266;DHT22;9259;48.194;16.322;2023-06-14T07:25:11;19.60;99.90
18266;DHT22;9259;48.194;16.322;2023-06-14T07:27:41;19.80;99.90
18266;DHT22;9259;48.194;16.322;2023-06-14T07:30:09;19.80;99.90
18266;DHT22;9259;48.194;16.322;2023-06-14T07:32:38;19.60;99.90
18266;DHT22;9259;48.194;16.322;2023-06-14T07:35:06;19.70;99.90
18266;DHT22;9259;48.194;16.322;2023-06-14T07:37:34;20.00;99.90
18266;DHT22;9259;48.194;16.322;2023-06-14T07:40:02;20.30;99.90
18266;DHT22;9259;48.194;16.322;2023-06-14T07:42:33;20.00;99.90
18266;DHT22;9259;48.194;16.322;2023-06-14T07:45:04;19.90;99.90
18266;DHT22;9259;48.194;16.322;2023-06-14T07:47:31;20.00;99.90
18266;DHT22;9259;48.194;16.322;2023-06-14T07:49:59;20.00;99.90
18266;DHT22;9259;48.194;16.322;2023-06-14T07:52:26;19.90;99.90
18266;DHT22;9259;48.194;16.322;2023-06-14T07:54:54;20.00;99.90
18266;DHT22;9259;48.194;16.322;2023-06-14T07:57:22;20.40;99.90
18266;DHT22;9259;48.194;16.322;2023-06-14T07:59:49;20.80;99.90
18266;DHT22;9259;48.194;16.322;2023-06-14T08:02:18;21.10;99.90
18266;DHT22;9259;48.194;16.322;2023-06-14T08:04:45;20.90;99.90
18266;DHT22;9259;48.194;16.322;2023-06-14T08:07:14;20.90;99.90
18266;DHT22;9259;48.194;16.322;2023-06-14T08:09:41;21.10;99.90
18266;DHT22;9259;48.194;16.322;2023-06-14T08:12:09;21.30;99.90
18266;DHT22;9259;48.194;16.322;2023-06-14T08:14:37;21.60;99.90
18266;DHT22;9259;48.194;16.322;2023-06-14T08:17:04;21.30;99.90
18266;DHT22;9259;48.194;16.322;2023-06-14T08:19:33;21.40;99.90
18266;DHT22;9259;48.194;16.322;2023-06-14T08:22:00;21.50;99.90
18266;DHT22;9259;48.194;16.322;2023-06-14T08:24:29;21.80;99.90
18266;DHT22;9259;48.194;16.322;2023-06-14T08:26:57;21.50;99.90
18266;DHT22;9259;48.194;16.322;2023-06-14T08:29:27;21.70;99.90
18266;DHT22;9259;48.194;16.322;2023-06-14T08:31:57;21.70;99.90
18266;DHT22;9259;48.194;16.322;2023-06-14T08:34:24;22.40;99.90
18266;DHT22;9259;48.194;16.322;2023-06-14T08:36:53;22.50;98.70
18266;DHT22;9259;48.194;16.322;2023-06-14T08:39:20;22.10;98.30
18266;DHT22;9259;48.194;16.322;2023-06-14T08:41:48;21.90;99.90
18266;DHT22;9259;48.194;16.322;2023-06-14T08:44:16;21.30;99.90
18266;DHT22;9259;48.194;16.322;2023-06-14T08:46:43;21.40;99.90
18266;DHT22;9259;48.194;16.322;2023-06-14T08:49:12;21.60;99.90
18266;DHT22;9259;48.194;16.322;2023-06-14T08:51:40;22.10;99.90
18266;DHT22;9259;48.194;16.322;2023-06-14T08:54:11;22.60;99.90
18266;DHT22;9259;48.194;16.322;2023-06-14T08:56:39;22.80;97.40
18266;DHT22;9259;48.194;16.322;2023-06-14T08:59:08;23.80;96.90
18266;DHT22;9259;48.194;16.322;2023-06-14T09:01:37;24.60;94.70
18266;DHT22;9259;48.194;16.322;2023-06-14T09:04:04;24.40;95.40
18266;DHT22;9259;48.194;16.322;2023-06-14T09:06:32;23.90;94.60
18266;DHT22;9259;48.194;16.322;2023-06-14T09:09:00;24.20;93.90
18266;DHT22;9259;48.194;16.322;2023-06-14T09:11:30;24.50;94.20
18266;DHT22;9259;48.194;16.322;2023-06-14T09:13:58;25.00;92.90
18266;DHT22;9259;48.194;16.322;2023-06-14T09:16:25;25.50;93.90
18266;DHT22;9259;48.194;16.322;2023-06-14T09:18:54;26.60;90.30
18266;DHT22;9259;48.194;16.322;2023-06-14T09:21:21;27.00;90.70
18266;DHT22;9259;48.194;16.322;2023-06-14T09:23:48;26.80;86.80
18266;DHT22;9259;48.194;16.322;2023-06-14T09:26:17;26.70;86.20
18266;DHT22;9259;48.194;16.322;2023-06-14T09:28:48;26.30;87.50
18266;DHT22;9259;48.194;16.322;2023-06-14T09:31:17;26.30;87.40
18266;DHT22;9259;48.194;16.322;2023-06-14T09:33:46;26.00;87.40
18266;DHT22;9259;48.194;16.322;2023-06-14T09:36:15;25.40;88.20
18266;DHT22;9259;48.194;16.322;2023-06-14T09:38:51;25.40;86.30
18266;DHT22;9259;48.194;16.322;2023-06-14T09:41:19;24.80;90.70
18266;DHT22;9259;48.194;16.322;2023-06-14T09:43:48;25.40;88.20
18266;DHT22;9259;48.194;16.322;2023-06-14T09:46:17;25.70;87.80
18266;DHT22;9259;48.194;16.322;2023-06-14T09:48:45;25.30;86.80
18266;DHT22;9259;48.194;16.322;2023-06-14T09:51:14;24.80;88.30
18266;DHT22;9259;48.194;16.322;2023-06-14T09:53:44;24.20;86.70
18266;DHT22;9259;48.194;16.322;2023-06-14T09:56:13;24.10;87.00
18266;DHT22;9259;48.194;16.322;2023-06-14T09:58:40;24.30;87.10
18266;DHT22;9259;48.194;16.322;2023-06-14T10:01:09;25.10;85.30
18266;DHT22;9259;48.194;16.322;2023-06-14T10:03:39;25.90;83.70
18266;DHT22;9259;48.194;16.322;2023-06-14T10:06:08;26.00;81.90
18266;DHT22;9259;48.194;16.322;2023-06-14T10:08:36;26.10;84.10
18266;DHT22;9259;48.194;16.322;2023-06-14T10:11:04;26.00;84.70
18266;DHT22;9259;48.194;16.322;2023-06-14T10:13:32;26.30;81.90
18266;DHT22;9259;48.194;16.322;2023-06-14T10:16:07;26.50;81.30
18266;DHT22;9259;48.194;16.322;2023-06-14T10:18:42;25.90;82.90
18266;DHT22;9259;48.194;16.322;2023-06-14T10:21:18;25.50;82.40
18266;DHT22;9259;48.194;16.322;2023-06-14T10:23:50;25.80;81.60
18266;DHT22;9259;48.194;16.322;2023-06-14T10:26:22;25.50;83.60
18266;DHT22;9259;48.194;16.322;2023-06-14T10:28:57;24.70;83.40
18266;DHT22;9259;48.194;16.322;2023-06-14T10:31:40;24.50;84.40
18266;DHT22;9259;48.194;16.322;2023-06-14T10:34:10;24.00;83.90
18266;DHT22;9259;48.194;16.322;2023-06-14T10:36:42;23.60;85.40
18266;DHT22;9259;48.194;16.322;2023-06-14T10:39:14;23.10;83.20
18266;DHT22;9259;48.194;16.322;2023-06-14T10:41:51;23.00;85.80
18266;DHT22;9259;48.194;16.322;2023-06-14T10:44:39;23.50;85.10
18266;DHT22;9259;48.194;16.322;2023-06-14T10:47:07;23.90;85.00
18266;DHT22;9259;48.194;16.322;2023-06-14T10:49:42;24.00;84.80
18266;DHT22;9259;48.194;16.322;2023-06-14T10:52:11;24.70;86.20
18266;DHT22;9259;48.194;16.322;2023-06-14T10:55:05;25.60;85.90
18266;DHT22;9259;48.194;16.322;2023-06-14T10:57:35;25.50;83.10
18266;DHT22;9259;48.194;16.322;2023-06-14T11:00:04;25.30;84.10
18266;DHT22;9259;48.194;16.322;2023-06-14T11:05:49;24.90;84.40
18266;DHT22;9259;48.194;16.322;2023-06-14T11:08:39;24.70;86.40
18266;DHT22;9259;48.194;16.322;2023-06-14T11:11:08;24.80;86.30
18266;DHT22;9259;48.194;16.322;2023-06-14T11:13:38;24.50;84.80
18266;DHT22;9259;48.194;16.322;2023-06-14T11:16:10;25.00;88.70
18266;DHT22;9259;48.194;16.322;2023-06-14T11:18:39;25.70;84.90
18266;DHT22;9259;48.194;16.322;2023-06-14T11:21:08;25.40;80.90
18266;DHT22;9259;48.194;16.322;2023-06-14T11:23:35;26.40;81.10
18266;DHT22;9259;48.194;16.322;2023-06-14T11:26:03;26.50;78.50
18266;DHT22;9259;48.194;16.322;2023-06-14T11:28:38;27.20;79.40
18266;DHT22;9259;48.194;16.322;2023-06-14T11:31:06;26.90;78.70
18266;DHT22;9259;48.194;16.322;2023-06-14T11:33:34;27.20;80.30
18266;DHT22;9259;48.194;16.322;2023-06-14T11:36:02;27.40;76.50
18266;DHT22;9259;48.194;16.322;2023-06-14T11:38:35;27.40;78.00
18266;DHT22;9259;48.194;16.322;2023-06-14T11:41:03;27.40;77.90
18266;DHT22;9259;48.194;16.322;2023-06-14T11:43:31;25.90;77.70
18266;DHT22;9259;48.194;16.322;2023-06-14T11:46:00;25.10;78.70
18266;DHT22;9259;48.194;16.322;2023-06-14T11:48:37;24.50;81.20
18266;DHT22;9259;48.194;16.322;2023-06-14T11:51:05;25.40;82.50
18266;DHT22;9259;48.194;16.322;2023-06-14T11:53:34;25.10;77.50
18266;DHT22;9259;48.194;16.322;2023-06-14T11:56:02;24.20;79.00
18266;DHT22;9259;48.194;16.322;2023-06-14T11:58:30;23.90;81.40
18266;DHT22;9259;48.194;16.322;2023-06-14T12:00:57;23.40;83.70
18266;DHT22;9259;48.194;16.322;2023-06-14T12:03:25;23.40;83.20
18266;DHT22;9259;48.194;16.322;2023-06-14T12:06:05;23.00;84.70
18266;DHT22;9259;48.194;16.322;2023-06-14T12:08:35;23.00;85.50
18266;DHT22;9259;48.194;16.322;2023-06-14T12:11:05;22.80;83.80
18266;DHT22;9259;48.194;16.322;2023-06-14T12:13:37;22.70;84.10
18266;DHT22;9259;48.194;16.322;2023-06-14T12:16:04;22.80;84.40
18266;DHT22;9259;48.194;16.322;2023-06-14T12:18:34;22.60;86.60
18266;DHT22;9259;48.194;16.322;2023-06-14T12:21:03;22.60;85.40
18266;DHT22;9259;48.194;16.322;2023-06-14T12:23:43;22.30;86.60
18266;DHT22;9259;48.194;16.322;2023-06-14T12:26:13;23.20;87.20
18266;DHT22;9259;48.194;16.322;2023-06-14T12:28:41;24.30;83.40
18266;DHT22;9259;48.194;16.322;2023-06-14T12:31:09;24.40;80.70
18266;DHT22;9259;48.194;16.322;2023-06-14T12:33:36;24.10;80.70
18266;DHT22;9259;48.194;16.322;2023-06-14T12:36:04;24.50;81.90
18266;DHT22;9259;48.194;16.322;2023-06-14T12:38:32;25.20;82.00
18266;DHT22;9259;48.194;16.322;2023-06-14T12:41:01;25.70;77.90
18266;DHT22;9259;48.194;16.322;2023-06-14T12:43:29;26.50;79.30
18266;DHT22;9259;48.194;16.322;2023-06-14T12:45:57;27.20;74.60
18266;DHT22;9259;48.194;16.322;2023-06-14T20:10:09;27.40;76.50
18266;DHT22;9259;48.194;16.322;2023-06-14T20:12:38;18.30;99.90
18266;DHT22;9259;48.194;16.322;2023-06-14T20:15:07;18.10;99.90
18266;DHT22;9259;48.194;16.322;2023-06-14T20:17:35;18.00;99.90
18266;DHT22;9259;48.194;16.322;2023-06-14T20:30:02;17.90;99.90
18266;DHT22;9259;48.194;16.322;2023-06-14T20:34:57;17.50;99.90
18266;DHT22;9259;48.194;16.322;2023-06-14T20:37:25;17.50;99.90
18266;DHT22;9259;48.194;16.322;2023-06-14T20:39:54;17.40;99.90
18266;DHT22;9259;48.194;16.322;2023-06-14T20:42:23;17.40;99.90
18266;DHT22;9259;48.194;16.322;2023-06-14T20:44:54;17.30;99.90
18266;DHT22;9259;48.194;16.322;2023-06-14T20:47:21;17.30;99.90
18266;DHT22;9259;48.194;16.322;2023-06-14T20:49:49;17.30;99.90
18266;DHT22;9259;48.194;16.322;2023-06-14T20:52:17;17.30;99.90
18266;DHT22;9259;48.194;16.322;2023-06-14T20:54:44;17.30;99.90
18266;DHT22;9259;48.194;16.322;2023-06-14T20:57:12;17.30;99.90
18266;DHT22;9259;48.194;16.322;2023-06-14T20:59:43;17.30;99.90
18266;DHT22;9259;48.194;16.322;2023-06-14T21:02:12;17.20;99.90
18266;DHT22;9259;48.194;16.322;2023-06-14T21:04:41;17.10;99.90
18266;DHT22;9259;48.194;16.322;2023-06-14T21:07:09;17.10;99.90
18266;DHT22;9259;48.194;16.322;2023-06-14T21:09:37;17.10;99.90
18266;DHT22;9259;48.194;16.322;2023-06-14T21:12:06;17.10;99.90
18266;DHT22;9259;48.194;16.322;2023-06-14T21:14:34;17.10;99.90
18266;DHT22;9259;48.194;16.322;2023-06-14T21:17:01;17.20;99.90
18266;DHT22;9259;48.194;16.322;2023-06-14T21:19:32;17.20;99.90
18266;DHT22;9259;48.194;16.322;2023-06-14T21:22:00;17.30;99.90
18266;DHT22;9259;48.194;16.322;2023-06-14T21:24:27;17.30;99.90
18266;DHT22;9259;48.194;16.322;2023-06-14T21:26:55;17.20;99.90
18266;DHT22;9259;48.194;16.322;2023-06-14T21:29:23;17.10;99.90
18266;DHT22;9259;48.194;16.322;2023-06-14T21:31:50;17.00;99.90
18266;DHT22;9259;48.194;16.322;2023-06-14T21:34:18;16.90;99.90
18266;DHT22;9259;48.194;16.322;2023-06-14T21:36:47;16.70;99.90
18266;DHT22;9259;48.194;16.322;2023-06-14T21:39:18;16.50;99.90
18266;DHT22;9259;48.194;16.322;2023-06-14T21:41:45;16.40;99.90
18266;DHT22;9259;48.194;16.322;2023-06-14T21:44:13;16.20;99.90
18266;DHT22;9259;48.194;16.322;2023-06-14T21:46:40;16.10;99.90
18266;DHT22;9259;48.194;16.322;2023-06-14T21:49:08;16.10;99.90
18266;DHT22;9259;48.194;16.322;2023-06-14T21:51:35;16.00;99.90
18266;DHT22;9259;48.194;16.322;2023-06-14T21:54:04;15.90;99.90
18266;DHT22;9259;48.194;16.322;2023-06-14T21:56:32;15.90;99.90
18266;DHT22;9259;48.194;16.322;2023-06-14T21:58:59;15.80;99.90
18266;DHT22;9259;48.194;16.322;2023-06-14T22:01:26;15.70;99.90
18266;DHT22;9259;48.194;16.322;2023-06-14T22:03:59;15.70;99.90
18266;DHT22;9259;48.194;16.322;2023-06-14T22:06:30;15.70;99.90
18266;DHT22;9259;48.194;16.322;2023-06-14T22:09:00;15.70;99.90
18266;DHT22;9259;48.194;16.322;2023-06-14T22:11:31;15.60;99.90
18266;DHT22;9259;48.194;16.322;2023-06-14T22:14:03;15.60;99.90
18266;DHT22;9259;48.194;16.322;2023-06-14T22:16:32;15.60;99.90
18266;DHT22;9259;48.194;16.322;2023-06-14T22:19:01;15.60;99.90
18266;DHT22;9259;48.194;16.322;2023-06-14T22:21:30;15.60;99.90
18266;DHT22;9259;48.194;16.322;2023-06-14T22:23:59;15.60;99.90
18266;DHT22;9259;48.194;16.322;2023-06-14T22:26:31;15.60;99.90
18266;DHT22;9259;48.194;16.322;2023-06-14T22:29:00;15.70;99.90
18266;DHT22;9259;48.194;16.322;2023-06-14T22:31:31;15.70;99.90
18266;DHT22;9259;48.194;16.322;2023-06-14T22:34:03;15.60;99.90
18266;DHT22;9259;48.194;16.322;2023-06-14T22:36:33;15.60;99.90
18266;DHT22;9259;48.194;16.322;2023-06-14T22:39:03;15.50;99.90
18266;DHT22;9259;48.194;16.322;2023-06-14T22:41:32;15.50;99.90
18266;DHT22;9259;48.194;16.322;2023-06-14T22:44:00;15.40;99.90
18266;DHT22;9259;48.194;16.322;2023-06-14T22:46:27;15.50;99.90
18266;DHT22;9259;48.194;16.322;2023-06-14T22:48:56;15.50;99.90
18266;DHT22;9259;48.194;16.322;2023-06-14T22:51:27;15.50;99.90
18266;DHT22;9259;48.194;16.322;2023-06-14T22:53:55;15.50;99.90
18266;DHT22;9259;48.194;16.322;2023-06-14T22:56:22;15.50;99.90
18266;DHT22;9259;48.194;16.322;2023-06-14T22:58:51;15.50;99.90
18266;DHT22;9259;48.194;16.322;2023-06-14T23:01:19;15.60;99.90
18266;DHT22;9259;48.194;16.322;2023-06-14T23:03:52;15.60;99.90
18266;DHT22;9259;48.194;16.322;2023-06-14T23:06:19;15.60;99.90
18266;DHT22;9259;48.194;16.322;2023-06-14T23:08:51;15.70;99.90
18266;DHT22;9259;48.194;16.322;2023-06-14T23:11:20;15.60;99.90
18266;DHT22;9259;48.194;16.322;2023-06-14T23:13:48;15.50;99.90
18266;DHT22;9259;48.194;16.322;2023-06-14T23:16:17;15.50;99.90
18266;DHT22;9259;48.194;16.322;2023-06-14T23:18:45;15.30;99.90
18266;DHT22;9259;48.194;16.322;2023-06-14T23:21:13;15.20;99.90
18266;DHT22;9259;48.194;16.322;2023-06-14T23:23:43;15.10;99.90
18266;DHT22;9259;48.194;16.322;2023-06-14T23:26:13;15.10;99.90
18266;DHT22;9259;48.194;16.322;2023-06-14T23:31:11;15.00;99.90
18266;DHT22;9259;48.194;16.322;2023-06-14T23:33:41;15.00;99.90
